Latest Weather Observations for Roebourne Airport

IDW60801

Issued at 3:05 pm WST Wednesday 17 September 2014 (issued every 30 minutes, with the page automatically refreshed every 10 minutes)

About weather observations | Map of weather stations | Latest weather observations for WA | Other Formats
Station Details ID: 004090 Name: ROEBOURNE AERO Lat: -20.76 Lon: 117.16 Height: 10.7 m
Data from the previous 72 hours. | See also: Recent months at Roebourne Airport
Date/Time
WST
Temp
°C
App
Temp
°C
Dew
Point
Rel
Hum
%
Delta-T
°C
Wind Press
QNH
hPa
Press
MSL
hPa
Rain
since 9 am
mm
Dir
 
Spd
km/h
Gust
km/h
Spd
kts
Gust
kts
17/03:00pm 35.6 28.8 3.0 13 17.0 WNW 28 35 15 19 1011.9 1011.9 0.0
17/02:30pm 35.9 29.9 5.2 15 16.6 WNW 26 37 14 20 1011.9 1011.9 0.0
17/02:00pm 36.0 30.4 7.1 17 16.1 NW 26 35 14 19 1012.0 1012.0 0.0
17/01:30pm 36.7 30.4 5.9 15 16.9 NW 28 35 15 19 1012.3 1012.3 0.0
17/01:00pm 36.5 30.4 2.5 12 17.6 NW 24 35 13 19 1012.4 1012.4 0.0
17/12:30pm 36.4 30.8 3.6 13 17.3 NW 22 33 12 18 1012.8 1012.8 0.0
17/12:00pm 35.1 30.7 6.4 17 15.7 W 19 28 10 15 1013.0 1013.0 0.0
17/11:30am 35.0 31.3 7.9 19 15.2 WSW 17 26 9 14 1013.6 1013.5 0.0
17/11:00am 33.3 30.0 8.0 21 14.1 WSW 15 26 8 14 1014.0 1013.9 0.0
17/10:30am 32.2 29.7 9.7 25 12.8 WSW 13 22 7 12 1014.4 1014.3 0.0
17/10:00am 31.0 27.7 10.9 29 11.6 SW 19 26 10 14 1014.6 1014.5 0.0
17/09:30am 29.1 28.2 13.7 38 9.2 SW 11 15 6 8 1014.7 1014.6 0.0
17/09:00am 27.8 28.4 15.8 48 7.4 W 7 13 4 7 1014.7 1014.6 -
17/08:30am 25.6 25.9 17.0 59 5.3 W 11 17 6 9 1014.5 1014.4 -
17/08:00am 24.1 24.4 16.9 64 4.4 W 11 15 6 8 1014.1 1014.0 -
17/07:30am 22.1 22.8 17.0 73 3.1 W 9 13 5 7 1013.9 1013.8 -
17/07:00am 20.4 21.5 17.0 81 2.1 W 7 11 4 6 1013.6 1013.5 -
17/06:30am 18.9 19.1 15.8 82 1.8 W 9 13 5 7 1013.1 1013.1 -
17/06:00am 19.6 20.0 16.3 81 2.0 W 9 13 5 7 1012.7 1012.7 -
17/05:30am 20.1 19.4 16.3 79 2.3 W 15 19 8 10 1012.2 1012.2 -
17/05:00am 20.2 20.0 16.6 80 2.2 W 13 19 7 10 1011.9 1011.9 -
17/04:30am 20.3 19.7 16.7 80 2.2 W 15 19 8 10 1011.7 1011.7 -
17/04:00am 20.1 19.1 16.5 80 2.2 W 17 24 9 13 1011.5 1011.5 -
17/03:30am 19.9 19.2 16.5 81 2.0 WSW 15 20 8 11 1011.6 1011.6 -
17/03:00am 19.8 19.5 16.4 81 2.0 WSW 13 17 7 9 1011.8 1011.8 0.0
17/02:30am 20.1 18.8 16.7 81 2.1 W 19 22 10 12 1011.7 1011.7 -
17/02:00am 20.3 20.1 16.7 80 2.2 W 13 17 7 9 1011.8 1011.8 -
17/01:30am 20.5 19.5 16.5 78 2.4 W 17 20 9 11 1011.9 1011.9 -
17/01:00am 20.9 19.9 16.5 76 2.7 W 17 20 9 11 1012.0 1012.0 -
17/12:30am 20.8 20.8 16.2 75 2.8 W 11 17 6 9 1012.2 1012.2 -
17/12:00am 20.8 20.6 15.8 73 3.0 W 11 15 6 8 1012.5 1012.5 -
 
Date/Time
WST
Temp
°C
App
Temp
°C
Dew
Point
Rel
Hum
%
Delta-T
°C
Wind Press
QNH
hPa
Press
MSL
hPa
Rain
since 9 am
mm
Dir
 
Spd
km/h
Gust
km/h
Spd
kts
Gust
kts
16/11:30pm 21.3 21.2 16.0 72 3.2 W 11 15 6 8 1012.6 1012.6 -
16/11:00pm 21.5 21.7 15.8 70 3.4 W 9 15 5 8 1012.7 1012.7 -
16/10:30pm 22.2 22.0 15.8 67 3.8 W 11 13 6 7 1012.6 1012.6 -
16/10:00pm 22.8 21.6 16.1 66 4.1 W 17 20 9 11 1012.6 1012.6 -
16/09:30pm 23.4 22.4 15.5 61 4.7 W 15 17 8 9 1012.5 1012.5 -
16/09:00pm 24.1 22.5 15.1 57 5.4 W 17 20 9 11 1012.4 1012.4 0.0
16/08:30pm 25.0 23.2 14.5 52 6.2 W 17 20 9 11 1012.3 1012.3 -
16/08:00pm 25.6 23.1 14.1 49 6.8 W 20 24 11 13 1011.9 1011.9 -
16/07:30pm 25.9 24.1 13.4 46 7.3 W 15 19 8 10 1011.6 1011.6 -
16/07:00pm 27.2 24.1 11.7 38 8.9 W 19 22 10 12 1011.1 1011.1 -
16/06:30pm 28.6 24.0 9.8 31 10.5 W 24 30 13 16 1010.4 1010.4 -
16/06:00pm 29.9 25.2 9.4 28 11.5 WNW 24 30 13 16 1010.1 1010.1 -
16/05:30pm 31.4 26.6 9.0 25 12.5 WNW 24 33 13 18 1009.9 1009.9 -
16/05:00pm 32.6 26.5 8.1 22 13.6 WNW 30 37 16 20 1009.7 1009.7 -
16/04:30pm 33.5 26.7 7.5 20 14.4 WNW 33 39 18 21 1009.7 1009.7 -
16/04:00pm 34.9 28.0 7.1 18 15.4 WNW 33 39 18 21 1009.5 1009.5 -
16/03:30pm 35.5 29.2 9.1 20 15.1 WNW 32 39 17 21 1009.3 1009.3 -
16/03:00pm 35.9 29.9 10.2 21 15.0 WNW 32 39 17 21 1009.3 1009.3 -
16/02:30pm 38.0 32.2 7.8 16 17.1 WNW 28 39 15 21 1009.3 1009.3 -
16/02:00pm 38.4 32.9 4.0 12 18.5 WNW 22 33 12 18 1009.2 1009.2 -
16/01:30pm 36.8 32.9 -1.2 9 18.6 WNW 9 20 5 11 1009.7 1009.7 -
16/01:00pm 37.2 31.5 -0.9 9 18.8 W 19 28 10 15 1010.2 1010.2 -
16/12:30pm 37.0 33.2 -1.1 9 18.7 SSW 9 24 5 13 1010.6 1010.6 0.0
16/12:00pm 36.2 31.1 -1.7 9 18.4 WSW 15 20 8 11 1011.1 1011.1 0.0
16/11:30am 36.3 31.6 -1.6 9 18.4 SSW 13 22 7 12 1011.6 1011.6 0.0
16/11:00am 35.3 30.7 -0.9 10 17.7 SSW 13 20 7 11 1011.9 1011.9 0.0
16/10:30am 34.4 29.0 -1.6 10 17.3 S 17 22 9 12 1012.2 1012.2 0.0
16/10:00am 33.7 27.8 -0.8 11 16.7 SW 20 30 11 16 1012.3 1012.3 0.0
16/09:30am 33.2 26.7 0.0 12 16.2 SSW 24 32 13 17 1012.6 1012.6 0.0
16/09:00am 31.0 24.4 -0.6 13 15.0 SW 24 32 13 17 1012.7 1012.7 0.0
16/08:30am 29.2 23.9 1.7 17 13.4 WSW 19 24 10 13 1012.8 1012.8 0.0
16/08:00am 27.6 22.7 1.9 19 12.5 WSW 17 20 9 11 1012.8 1012.8 0.0
16/07:30am 25.8 22.1 2.5 22 11.3 WSW 11 15 6 8 1012.6 1012.6 0.0
16/07:00am 21.4 18.9 3.6 31 8.5 WSW 6 11 3 6 1012.3 1012.3 0.0
16/06:30am 17.5 15.8 1.9 35 7.0 CALM 0 0 0 0 1012.0 1012.0 0.0
16/06:00am 18.0 14.5 1.5 33 7.4 WSW 9 13 5 7 1011.7 1011.7 0.0
16/05:30am 19.6 16.7 2.5 32 7.9 W 7 9 4 5 1011.5 1011.5 0.0
16/05:00am 19.5 16.6 2.4 32 7.9 W 7 11 4 6 1011.4 1011.4 0.0
16/04:30am 19.5 17.1 2.4 32 7.9 W 4 6 2 3 1011.1 1011.1 0.0
16/04:00am 23.3 19.6 2.2 25 10.0 WSW 11 13 6 7 1010.8 1010.8 0.0
16/03:30am 23.6 19.5 2.4 25 10.1 SW 13 17 7 9 1010.8 1010.8 0.0
16/03:00am 24.7 20.6 2.2 23 10.8 WSW 13 19 7 10 1010.7 1010.7 0.0
16/02:30am 24.6 20.2 2.7 24 10.6 SW 15 20 8 11 1010.8 1010.8 0.0
16/02:00am 24.5 19.7 2.6 24 10.5 SW 17 22 9 12 1010.9 1010.9 0.0
16/01:30am 24.7 20.0 3.4 25 10.4 SW 17 20 9 11 1011.0 1011.0 0.0
16/01:00am 25.6 20.7 4.1 25 10.7 SW 19 24 10 13 1011.3 1011.3 0.0
16/12:30am 25.3 21.3 5.0 27 10.3 WSW 15 17 8 9 1011.6 1011.6 0.0
16/12:00am 26.1 21.4 5.1 26 10.7 WSW 19 20 10 11 1011.9 1011.9 0.0
 
Date/Time
WST
Temp
°C
App
Temp
°C
Dew
Point
Rel
Hum
%
Delta-T
°C
Wind Press
QNH
hPa
Press
MSL
hPa
Rain
since 9 am
mm
Dir
 
Spd
km/h
Gust
km/h
Spd
kts
Gust
kts
15/11:30pm 25.9 21.5 4.9 26 10.6 WSW 17 20 9 11 1012.0 1012.0 0.0
15/11:00pm 26.6 22.6 5.0 25 11.0 WSW 15 19 8 10 1012.2 1012.2 0.0
15/10:30pm 27.3 22.9 5.0 24 11.4 WSW 17 20 9 11 1012.2 1012.2 0.0
15/10:00pm 25.0 22.3 5.7 29 9.9 W 9 11 5 6 1012.5 1012.5 0.0
15/09:30pm 25.3 22.5 7.0 31 9.6 WNW 11 15 6 8 1012.7 1012.7 0.0
15/09:00pm 26.7 24.3 7.2 29 10.3 WNW 9 11 5 6 1012.7 1012.7 0.0
15/08:30pm 27.7 25.0 7.5 28 10.8 W 11 15 6 8 1012.6 1012.6 0.0
15/08:00pm 28.0 26.0 10.2 33 10.0 W 11 13 6 7 1012.5 1012.5 0.0
15/07:30pm 27.3 25.7 11.7 37 9.0 NW 11 13 6 7 1012.1 1012.1 0.0
15/07:00pm 27.7 26.0 11.3 36 9.4 NW 11 13 6 7 1011.8 1011.8 0.0
15/06:30pm 29.1 26.9 9.3 29 11.0 NW 11 15 6 8 1011.5 1011.5 0.0
15/06:00pm 31.0 28.3 7.5 23 12.8 NW 11 15 6 8 1011.1 1011.1 0.0
15/05:30pm 32.5 28.2 5.1 18 14.5 WNW 17 22 9 12 1010.8 1010.8 0.0
15/05:00pm 33.3 28.7 5.8 18 14.8 NW 19 24 10 13 1010.5 1010.5 0.0
15/04:30pm 34.2 29.4 5.7 17 15.4 NNW 20 26 11 14 1010.3 1010.3 0.0
15/04:00pm 34.5 28.6 4.1 15 16.0 NW 24 30 13 16 1010.1 1010.1 0.0
15/03:30pm 35.1 29.0 4.6 15 16.2 NNW 26 39 14 21 1010.1 1010.1 0.0
15/03:00pm 35.3 29.2 6.6 17 15.8 NNW 28 35 15 19 1010.1 1010.1 0.0
15/02:30pm 35.9 30.1 4.2 14 16.8 NNW 24 32 13 17 1010.2 1010.2 0.0
15/02:00pm 35.6 29.0 4.0 14 16.7 N 28 35 15 19 1010.3 1010.3 0.0
15/01:30pm 34.9 28.5 7.1 18 15.4 N 30 37 16 20 1010.5 1010.5 0.0
15/01:00pm 36.4 30.3 4.6 14 17.1 N 26 33 14 18 1010.5 1010.5 0.0
15/12:30pm 36.9 32.1 8.7 18 16.1 N 24 30 13 16 1010.7 1010.7 0.0
15/12:00pm 36.8 31.4 7.8 17 16.4 NNE 26 32 14 17 1011.0 1011.0 0.0
15/11:30am 39.6 34.0 0.9 9 19.9 ENE 20 30 11 16 1011.3 1011.3 0.0
15/11:00am 38.8 33.4 -1.4 8 19.9 ESE 17 26 9 14 1011.7 1011.7 0.0
15/10:30am 37.3 31.0 -0.9 9 18.9 ESE 22 32 12 17 1012.0 1012.0 0.0
15/10:00am 36.1 29.9 -0.3 10 18.0 SE 22 32 12 17 1012.1 1012.1 0.0
15/09:30am 35.3 28.6 -0.9 10 17.7 SE 24 32 13 17 1012.2 1012.2 0.0
15/09:00am 33.7 28.0 0.4 12 16.4 SE 20 26 11 14 1012.4 1012.4 0.0
15/08:30am 32.0 26.6 1.2 14 15.2 SSE 19 24 10 13 1012.4 1012.4 0.0
15/08:00am 30.2 25.6 1.6 16 14.1 S 15 20 8 11 1012.5 1012.5 0.0
15/07:30am 28.2 22.8 2.4 19 12.7 S 20 26 11 14 1012.1 1012.1 0.0
15/07:00am 25.0 21.3 2.4 23 10.9 SSW 11 13 6 7 1012.0 1012.0 0.0
15/06:30am 23.5 18.7 2.4 25 10.0 SW 17 20 9 11 1011.8 1011.8 0.0
15/06:00am 24.0 18.7 1.6 23 10.5 SW 19 22 10 12 1011.7 1011.7 0.0
15/05:30am 24.2 18.7 1.8 23 10.6 SW 20 24 11 13 1011.6 1011.6 0.0
15/05:00am 24.6 19.1 2.1 23 10.7 SW 20 24 11 13 1011.4 1011.4 0.0
15/04:30am 25.0 19.6 2.4 23 10.9 SW 20 24 11 13 1011.5 1011.5 0.0
15/04:00am 25.2 19.8 2.6 23 10.9 SW 20 24 11 13 1011.5 1011.5 0.0
15/03:30am 25.2 20.0 2.6 23 10.9 SW 19 24 10 13 1011.6 1011.6 0.0
15/03:00am 25.6 20.3 2.9 23 11.1 SW 20 24 11 13 1011.7 1011.7 0.0
15/02:30am 26.0 20.6 2.7 22 11.3 SW 20 26 11 14 1011.9 1011.9 0.0
15/02:00am 26.2 21.1 2.8 22 11.4 SW 19 22 10 12 1012.1 1012.1 0.0
15/01:30am 26.5 21.7 2.4 21 11.7 SW 17 22 9 12 1012.2 1012.2 0.0
15/01:00am 26.3 21.1 2.3 21 11.6 SW 19 20 10 11 1012.5 1012.5 0.0
15/12:30am 26.8 21.5 2.0 20 12.0 SW 19 20 10 11 1012.7 1012.7 0.0
15/12:00am 26.9 21.4 2.1 20 12.0 SW 20 24 11 13 1012.9 1012.9 0.0
 
Date/Time
WST
Temp
°C
App
Temp
°C
Dew
Point
Rel
Hum
%
Delta-T
°C
Wind Press
QNH
hPa
Press
MSL
hPa
Rain
since 9 am
mm
Dir
 
Spd
km/h
Gust
km/h
Spd
kts
Gust
kts
14/11:30pm 26.6 21.6 3.8 23 11.4 SW 19 24 10 13 1012.9 1012.9 0.0
14/11:00pm 27.4 22.5 5.1 24 11.4 SW 20 26 11 14 1012.9 1012.9 0.0
14/10:30pm 27.8 23.5 5.4 24 11.6 SW 17 20 9 11 1013.1 1013.1 0.0
14/10:00pm 26.9 23.6 6.3 27 10.8 WSW 13 17 7 9 1013.0 1013.0 0.0
14/09:30pm 27.5 24.7 6.8 27 10.9 WSW 11 17 6 9 1013.1 1013.1 0.0
14/09:00pm 26.7 23.8 8.2 31 10.0 W 13 17 7 9 1013.2 1013.2 0.0
14/08:30pm 27.4 24.4 10.6 35 9.5 W 17 20 9 11 1012.9 1012.9 0.0
14/08:00pm 26.8 25.3 13.2 43 8.0 WNW 13 15 7 8 1012.9 1012.9 0.0
14/07:30pm 28.0 26.4 13.9 42 8.4 WNW 15 19 8 10 1012.6 1012.6 0.0
14/07:00pm 28.6 26.9 14.8 43 8.4 WNW 17 20 9 11 1012.1 1012.1 0.0
14/06:30pm 30.1 27.3 12.5 34 10.4 WNW 19 22 10 12 1011.8 1011.8 0.0
14/06:00pm 31.8 29.1 11.6 29 11.8 WNW 17 20 9 11 1011.4 1011.4 0.0
14/05:30pm 34.0 29.9 8.6 21 14.3 NW 20 26 11 14 1011.2 1011.2 0.0
14/05:00pm 35.3 30.0 4.8 15 16.3 NNW 22 26 12 14 1011.1 1011.1 0.0
14/04:30pm 36.0 30.8 5.3 15 16.6 NNW 22 28 12 15 1010.9 1010.9 0.0
14/04:00pm 36.8 31.1 4.9 14 17.2 NNW 24 30 13 16 1010.9 1010.9 0.0
14/03:30pm 36.5 31.1 4.7 14 17.1 N 22 30 12 16 1010.9 1010.9 0.0

Other Formats:

Comma delimited format used in spreadsheet applications
http://www.bom.gov.au/fwo/IDW60801/IDW60801.94308.axf

JavaScript Object Notation format (JSON) in row-major order
http://www.bom.gov.au/fwo/IDW60801/IDW60801.94308.json